Time;durP1;ratioP1;P1;durP2;ratioP2;P2;SDS_P1;SDS_P2;PMS_P1;PMS_P2;Temp;Humidity;BMP_temperature;BMP_pressure;BME280_temperature;BME280_humidity;BME280_pressure;Samples;Min_cycle;Max_cycle;Signal;HPM_P1;HPM_P2
2022/12/22 03:25:55;;;;;;;2.6;2.2;;;;;;;4.5;93.77051;934.6294;;;;
2022/12/22 03:28:14;;;;;;;2.3;2.1;;;;;;;4.53;93.15918;934.5316;;;;
2022/12/22 03:30:40;;;;;;;2.4;2;;;;;;;4.51;93.19824;934.5444;;;;
2022/12/22 03:33:06;;;;;;;2.4;2;;;;;;;4.29;93.69141;934.525;;;;
2022/12/22 03:35:32;;;;;;;2.8;2.1;;;;;;;4.12;94.75391;934.4822;;;;
2022/12/22 03:38:02;;;;;;;2.9;2.3;;;;;;;4.02;95.45313;934.4339;;;;
2022/12/22 03:40:23;;;;;;;2.5;2.3;;;;;;;4.17;95.13672;934.2906;;;;
2022/12/22 03:47:41;;;;;;;3.1;2.1;;;;;;;4.11;95.2373;934.2377;;;;
2022/12/22 03:50:12;;;;;;;2.7;2.3;;;;;;;3.9;96.33789;934.2177;;;;
2022/12/22 03:52:40;;;;;;;2.8;2.3;;;;;;;3.8;97.29297;934.1831;;;;
2022/12/22 03:55:05;;;;;;;3.1;2.4;;;;;;;3.72;98.00488;934.1116;;;;
2022/12/22 03:57:32;;;;;;;3.4;2.2;;;;;;;3.68;98.58984;934.1177;;;;
2022/12/22 03:59:57;;;;;;;3.8;2.6;;;;;;;3.85;98.30371;934.1658;;;;
2022/12/22 04:02:33;;;;;;;2.5;1.9;;;;;;;3.94;97.31055;934.1769;;;;
2022/12/22 04:05:00;;;;;;;4.2;2.4;;;;;;;3.81;97.95801;934.1484;;;;
2022/12/22 04:07:25;;;;;;;3.2;2.5;;;;;;;3.73;98.50098;934.0867;;;;
2022/12/22 04:14:49;;;;;;;3.5;2.4;;;;;;;3.75;98.5166;934.1298;;;;
2022/12/22 04:17:14;;;;;;;3.3;2.1;;;;;;;3.69;99.20996;934.0611;;;;
2022/12/22 04:19:40;;;;;;;4;2.5;;;;;;;3.74;99.61426;934.1239;;;;
2022/12/22 04:22:06;;;;;;;7.1;2.9;;;;;;;3.82;99.34082;934.0469;;;;
2022/12/22 04:24:33;;;;;;;3.1;2.7;;;;;;;3.89;98.94141;934.1024;;;;
2022/12/22 04:26:58;;;;;;;3.6;2.5;;;;;;;3.92;98.9502;934.1506;;;;
2022/12/22 04:29:24;;;;;;;3.3;2.1;;;;;;;3.91;99.10547;934.1361;;;;
2022/12/22 04:31:50;;;;;;;2.7;2.1;;;;;;;4;99.09277;934.1094;;;;
2022/12/22 04:34:16;;;;;;;3;2.1;;;;;;;4.16;98.36523;934.0698;;;;
2022/12/22 04:36:41;;;;;;;3.1;2.1;;;;;;;4.25;97.58496;934.0455;;;;
2022/12/22 04:39:08;;;;;;;2.4;2.2;;;;;;;4.31;96.90234;934.0133;;;;
2022/12/22 04:41:33;;;;;;;3.5;2.3;;;;;;;4.4;96.49512;933.8418;;;;
2022/12/22 04:44:02;;;;;;;4.3;2.2;;;;;;;4.52;95.48535;933.832;;;;
2022/12/22 04:46:27;;;;;;;5.7;2.1;;;;;;;4.5;94.95215;933.6605;;;;
2022/12/22 04:48:53;;;;;;;4.1;2.4;;;;;;;4.5;94.90527;933.7336;;;;
2022/12/22 04:51:18;;;;;;;2.9;2.3;;;;;;;4.41;95.17969;933.8113;;;;
2022/12/22 04:53:44;;;;;;;3.1;2.4;;;;;;;4.48;95.29785;933.8042;;;;
2022/12/22 04:56:09;;;;;;;2.8;2.3;;;;;;;4.57;94.73242;933.7813;;;;
2022/12/22 04:58:36;;;;;;;2.7;2.3;;;;;;;4.33;95.87988;933.8734;;;;
2022/12/22 05:01:01;;;;;;;3.5;3.2;;;;;;;4.33;96.16309;933.9185;;;;
2022/12/22 05:03:32;;;;;;;2.2;2;;;;;;;4.35;96.30273;933.9315;;;;
2022/12/22 05:05:57;;;;;;;2.8;2;;;;;;;4.36;96.32715;933.983;;;;
2022/12/22 05:08:22;;;;;;;2.6;1.9;;;;;;;4.45;96.4043;934.0125;;;;
2022/12/22 05:10:47;;;;;;;2.1;1.8;;;;;;;4.65;95.52539;934.0884;;;;
2022/12/22 05:13:16;;;;;;;6.3;4;;;;;;;4.51;95.3623;934.055;;;;
2022/12/22 05:15:41;;;;;;;6.7;4;;;;;;;4.53;95.51953;933.9583;;;;
2022/12/22 05:18:07;;;;;;;5.1;3.5;;;;;;;4.52;95.8457;933.9291;;;;
2022/12/22 05:20:32;;;;;;;5.3;4.2;;;;;;;4.67;95.02441;933.9322;;;;
2022/12/22 05:22:58;;;;;;;5.1;4;;;;;;;4.7;93.93848;933.9425;;;;
2022/12/22 05:25:23;;;;;;;4.9;3.5;;;;;;;4.6;93.99512;933.8672;;;;
2022/12/22 05:27:52;;;;;;;5.3;3.2;;;;;;;4.56;94.53711;933.8117;;;;
2022/12/22 05:31:16;;;;;;;2.8;2.3;;;;;;;4.52;95.55371;933.7499;;;;
2022/12/22 05:33:35;;;;;;;4.1;3.7;;;;;;;4.57;94.73242;933.7417;;;;
2022/12/22 05:36:02;;;;;;;3.2;2.9;;;;;;;4.57;94.18066;933.7623;;;;
2022/12/22 05:38:27;;;;;;;5.6;5.2;;;;;;;4.5;94.09668;933.7678;;;;
2022/12/22 05:40:53;;;;;;;3.2;2.9;;;;;;;4.63;94.66309;933.812;;;;
2022/12/22 05:43:18;;;;;;;3.5;2.8;;;;;;;4.78;94.11133;933.8046;;;;
2022/12/22 05:45:46;;;;;;;3.4;3.1;;;;;;;4.8;93.58789;933.7862;;;;
2022/12/22 05:48:11;;;;;;;2.1;1.9;;;;;;;4.8;93.7793;933.8516;;;;
2022/12/22 05:50:38;;;;;;;1.9;1.7;;;;;;;4.92;92.3291;933.9169;;;;
2022/12/22 05:53:03;;;;;;;3;1.8;;;;;;;5.06;92.29102;933.9648;;;;
2022/12/22 05:55:31;;;;;;;2.4;2.1;;;;;;;5.21;91.16211;933.8839;;;;
2022/12/22 05:57:56;;;;;;;4.8;3.5;;;;;;;5.08;91.03418;934.1389;;;;
2022/12/22 06:00:22;;;;;;;9.8;5.5;;;;;;;4.93;91.7793;934.1785;;;;
2022/12/22 06:02:48;;;;;;;5.4;4;;;;;;;4.93;91.74512;934.0034;;;;
2022/12/22 06:05:18;;;;;;;4.3;3.2;;;;;;;4.92;91.63086;934.0369;;;;
2022/12/22 06:07:43;;;;;;;5.2;3.8;;;;;;;4.81;91.98828;934.024;;;;
2022/12/22 06:10:11;;;;;;;6.6;4.5;;;;;;;4.6;93.00391;933.9278;;;;
2022/12/22 06:12:36;;;;;;;3.7;3;;;;;;;4.63;93.10938;933.9761;;;;
2022/12/22 06:15:01;;;;;;;5.4;4;;;;;;;4.52;93.09863;933.9881;;;;
2022/12/22 06:17:27;;;;;;;6.4;4.1;;;;;;;4.21;94.78711;933.984;;;;
2022/12/22 06:19:56;;;;;;;5.7;4;;;;;;;4.33;94.41895;933.9185;;;;
2022/12/22 06:22:21;;;;;;;3.9;3.3;;;;;;;4.47;93.69727;933.923;;;;
2022/12/22 06:24:47;;;;;;;6.4;3.8;;;;;;;4.52;92.75;933.9323;;;;
2022/12/22 06:27:12;;;;;;;5.9;4.4;;;;;;;4.54;92.38379;933.9422;;;;
2022/12/22 06:29:38;;;;;;;6.6;4.6;;;;;;;4.42;93.13379;934.0005;;;;
2022/12/22 06:32:03;;;;;;;5.7;4.9;;;;;;;4.32;93.46094;934.0985;;;;
2022/12/22 06:34:30;;;;;;;7.4;4.8;;;;;;;4.02;94.8125;933.9731;;;;
2022/12/22 06:36:55;;;;;;;5.8;4.6;;;;;;;3.87;96.28418;934.2215;;;;
2022/12/22 06:39:22;;;;;;;4;3.4;;;;;;;3.8;97.83008;934.2059;;;;
2022/12/22 06:44:12;;;;;;;4.6;3.2;;;;;;;3.67;97.94727;934.2967;;;;
2022/12/22 06:46:41;;;;;;;2.8;2.5;;;;;;;3.68;98.03906;934.29;;;;
2022/12/22 06:49:06;;;;;;;4.1;3;;;;;;;3.59;98.69434;934.2006;;;;
2022/12/22 06:51:37;;;;;;;4.1;3.7;;;;;;;3.58;98.76953;934.1577;;;;
2022/12/22 06:54:05;;;;;;;8.7;3.9;;;;;;;3.54;98.52246;934.3092;;;;
2022/12/22 06:56:30;;;;;;;7.4;4.6;;;;;;;3.71;97.58496;934.2576;;;;
2022/12/22 06:58:58;;;;;;;6.2;4.5;;;;;;;3.83;96.28711;934.3022;;;;
2022/12/22 07:01:23;;;;;;;12.5;7.2;;;;;;;3.81;96.24805;934.2837;;;;
2022/12/22 07:03:50;;;;;;;14.4;10.5;;;;;;;3.88;96.14063;934.3934;;;;
2022/12/22 07:06:17;;;;;;;9.2;6.1;;;;;;;3.84;95.91699;934.3372;;;;
2022/12/22 07:08:43;;;;;;;9;6.6;;;;;;;3.77;95.27539;934.358;;;;
2022/12/22 07:11:08;;;;;;;8.6;6.2;;;;;;;3.73;94.92773;934.3497;;;;
2022/12/22 07:13:34;;;;;;;6.9;4.7;;;;;;;3.71;94.65234;934.4426;;;;
2022/12/22 07:16:00;;;;;;;5.9;4.5;;;;;;;3.62;95.11523;934.378;;;;
2022/12/22 07:18:26;;;;;;;4.2;3.1;;;;;;;3.44;97.24219;934.407;;;;
2022/12/22 07:20:51;;;;;;;4.4;3.3;;;;;;;3.39;98.97266;934.4455;;;;
2022/12/22 07:23:18;;;;;;;4.2;3.2;;;;;;;3.54;99.14063;934.4713;;;;
2022/12/22 07:25:44;;;;;;;3.6;2.9;;;;;;;3.58;98.84766;934.4899;;;;
2022/12/22 07:28:10;;;;;;;3.5;2.9;;;;;;;3.65;98.93164;934.4766;;;;
2022/12/22 07:30:36;;;;;;;5.1;3.8;;;;;;;3.66;98.61719;934.4232;;;;
2022/12/22 07:33:02;;;;;;;4.9;4.3;;;;;;;3.7;97.2793;934.3322;;;;
2022/12/22 07:35:27;;;;;;;10.8;7.2;;;;;;;3.53;97.59961;934.4011;;;;
2022/12/22 07:37:57;;;;;;;16.6;9.6;;;;;;;3.6;97.54883;934.3597;;;;
2022/12/22 07:40:22;;;;;;;13.6;8.9;;;;;;;3.74;97.30078;934.2838;;;;
2022/12/22 07:42:52;;;;;;;13.3;8.7;;;;;;;3.85;96.71875;934.4131;;;;
2022/12/22 07:45:17;;;;;;;12.4;8.7;;;;;;;3.9;96.07715;934.383;;;;
2022/12/22 07:47:45;;;;;;;13.3;9.8;;;;;;;3.85;96.25781;934.4556;;;;
2022/12/22 07:50:39;;;;;;;12.9;9.8;;;;;;;3.98;95.60059;934.4333;;;;
2022/12/22 07:53:06;;;;;;;15.2;9;;;;;;;3.71;96.46094;934.5403;;;;
2022/12/22 07:55:31;;;;;;;11.1;8.6;;;;;;;3.88;95.91504;934.4266;;;;
2022/12/22 07:58:01;;;;;;;11.1;8.1;;;;;;;3.81;95.52832;934.4151;;;;
2022/12/22 08:00:29;;;;;;;10.1;6.7;;;;;;;3.75;96.06641;934.4438;;;;
2022/12/22 08:02:54;;;;;;;5.6;4.1;;;;;;;3.73;96.43359;934.4851;;;;
2022/12/22 08:05:26;;;;;;;4.4;3.4;;;;;;;3.77;96.71191;934.468;;;;
2022/12/22 08:07:54;;;;;;;5.5;3.5;;;;;;;3.88;96.85938;934.4579;;;;
2022/12/22 08:10:20;;;;;;;10.6;7.2;;;;;;;3.92;96.53125;934.4182;;;;
2022/12/22 08:12:48;;;;;;;7.1;5.6;;;;;;;4.02;95.83398;934.3345;;;;
2022/12/22 08:15:21;;;;;;;11.5;7.1;;;;;;;4.59;94.35547;934.3124;;;;
2022/12/22 08:17:46;;;;;;;7.8;5.1;;;;;;;5.66;90.40039;934.3499;;;;
2022/12/22 08:20:16;;;;;;;5.8;3.9;;;;;;;7.03;83.14844;934.377;;;;
2022/12/22 08:22:44;;;;;;;6.1;4.5;;;;;;;8.05;76.77344;934.2599;;;;
2022/12/22 08:25:09;;;;;;;6.2;4.6;;;;;;;8.91;73.41211;934.2458;;;;
2022/12/22 08:27:39;;;;;;;12;5.2;;;;;;;9.79;69.18555;934.1398;;;;
2022/12/22 08:30:02;;;;;;;5.3;4.1;;;;;;;9.21;69.59277;934.0731;;;;
2022/12/22 08:32:31;;;;;;;3.4;2.7;;;;;;;9.51;70.06348;934.0488;;;;
2022/12/22 08:34:56;;;;;;;2.3;2;;;;;;;10.01;67.47559;934.0115;;;;
2022/12/22 08:37:21;;;;;;;2.3;1.9;;;;;;;9.89;67.53711;933.933;;;;
2022/12/22 08:39:52;;;;;;;2.8;2.4;;;;;;;8.91;70.75195;933.8211;;;;
2022/12/22 08:42:17;;;;;;;7.5;5.1;;;;;;;8.83;72.54492;933.7784;;;;
2022/12/22 08:44:51;;;;;;;5.8;4.5;;;;;;;8.41;73.38379;933.689;;;;
2022/12/22 08:47:12;;;;;;;6.8;4.9;;;;;;;7.83;77.1875;933.5466;;;;
2022/12/22 08:49:40;;;;;;;7.8;4.7;;;;;;;7.35;78.46094;933.5856;;;;
2022/12/22 08:52:05;;;;;;;8.7;4.6;;;;;;;7.14;80.58887;933.3409;;;;
2022/12/22 08:54:32;;;;;;;6.2;4.5;;;;;;;6.81;81.49902;933.373;;;;
2022/12/22 08:56:58;;;;;;;5.3;3.2;;;;;;;6.7;82.31641;933.3892;;;;
2022/12/22 08:59:28;;;;;;;4.1;2.6;;;;;;;6.59;83.1416;933.1617;;;;
2022/12/22 09:02:03;;;;;;;2.4;1.6;;;;;;;6.78;83.0332;932.9941;;;;
2022/12/22 09:04:24;;;;;;;3.9;3.3;;;;;;;6.9;83.20313;932.9153;;;;
2022/12/22 09:06:47;;;;;;;7.5;4.4;;;;;;;6.79;83.64453;933.082;;;;
2022/12/22 09:09:14;;;;;;;4.3;3;;;;;;;6.79;83.21484;933.0994;;;;
2022/12/22 09:11:39;;;;;;;6.1;4.8;;;;;;;6.99;83.39063;932.9934;;;;
2022/12/22 09:14:06;;;;;;;5.6;3.8;;;;;;;7.09;82.33398;932.9808;;;;
2022/12/22 09:16:33;;;;;;;3.6;2.7;;;;;;;6.86;82.18848;932.9149;;;;
2022/12/22 09:18:58;;;;;;;3.9;2.6;;;;;;;6.88;83.17676;932.8542;;;;
2022/12/22 09:21:27;;;;;;;3.3;1.9;;;;;;;7.05;82.20117;932.7784;;;;
2022/12/22 09:23:52;;;;;;;5;3.5;;;;;;;7.12;81.44434;932.826;;;;
2022/12/22 09:26:17;;;;;;;4.7;3.4;;;;;;;7.07;81.85352;932.7161;;;;
2022/12/22 09:28:43;;;;;;;4.7;3.7;;;;;;;7.2;81.96973;932.725;;;;
2022/12/22 09:31:08;;;;;;;3.8;2.8;;;;;;;7.22;81.62207;932.6582;;;;
2022/12/22 09:33:36;;;;;;;4.9;3.2;;;;;;;7.2;81.52637;932.736;;;;
2022/12/22 09:36:00;;;;;;;4.9;2.5;;;;;;;7.34;81.61035;932.6431;;;;
2022/12/22 09:38:28;;;;;;;2;1.7;;;;;;;7.57;79.75;932.601;;;;
2022/12/22 09:40:53;;;;;;;5.4;3.3;;;;;;;7.68;80.12109;932.6769;;;;
2022/12/22 09:43:18;;;;;;;5.2;3.7;;;;;;;7.77;80.28711;932.6169;;;;
2022/12/22 09:45:48;;;;;;;12;7.1;;;;;;;7.84;80.24121;932.625;;;;
2022/12/22 09:48:13;;;;;;;7.4;5.8;;;;;;;7.7;79.78418;932.4465;;;;
2022/12/22 09:50:38;;;;;;;7.3;5.7;;;;;;;7.78;81.22949;932.5718;;;;
2022/12/22 09:53:05;;;;;;;6.7;5;;;;;;;7.9;80.59473;932.5139;;;;
2022/12/22 09:55:30;;;;;;;7;3.9;;;;;;;7.86;79.61035;932.4667;;;;
2022/12/22 09:57:57;;;;;;;5.6;3.7;;;;;;;7.81;80.17871;932.5067;;;;
2022/12/22 10:00:22;;;;;;;5.7;4.1;;;;;;;7.78;80.29883;932.2722;;;;
2022/12/22 10:02:47;;;;;;;5.3;4.1;;;;;;;7.83;81.30762;932.2683;;;;
2022/12/22 10:05:14;;;;;;;8.4;4.7;;;;;;;7.78;81.34277;932.2073;;;;
2022/12/22 10:07:41;;;;;;;4.8;3.8;;;;;;;8.12;80.42969;932.3395;;;;
2022/12/22 10:10:04;;;;;;;1.3;1.2;;;;;;;8.63;74.89844;932.159;;;;
2022/12/22 10:12:29;;;;;;;1.6;1.3;;;;;;;9.25;72.77637;932.2347;;;;
2022/12/22 10:14:54;;;;;;;2.9;2.2;;;;;;;9.59;74.77051;932.3738;;;;
2022/12/22 10:17:20;;;;;;;1.9;1.6;;;;;;;9.89;72.50781;932.3594;;;;
2022/12/22 10:19:47;;;;;;;4.2;2.6;;;;;;;10.22;70.08789;932.4531;;;;
2022/12/22 10:22:12;;;;;;;4.9;2.8;;;;;;;10.44;71.61719;932.623;;;;
2022/12/22 10:24:38;;;;;;;4.8;2.8;;;;;;;10.62;68.20996;932.6791;;;;
2022/12/22 10:27:03;;;;;;;3.1;2.2;;;;;;;10.86;67.90527;932.8489;;;;
2022/12/22 10:29:28;;;;;;;2.6;1.8;;;;;;;10.8;67.19824;932.687;;;;
2022/12/22 10:31:57;;;;;;;2.8;2.1;;;;;;;10.46;71.37012;932.9263;;;;
2022/12/22 10:34:22;;;;;;;3.1;1.8;;;;;;;10.26;71.67969;932.687;;;;
2022/12/22 10:36:47;;;;;;;2.5;2;;;;;;;10.12;73.31055;932.9272;;;;
2022/12/22 10:39:12;;;;;;;2;1.8;;;;;;;10.17;71.07227;932.637;;;;
2022/12/22 10:41:41;;;;;;;2.5;1.7;;;;;;;10.27;70.79199;932.8199;;;;
2022/12/22 10:44:10;;;;;;;1.8;1.4;;;;;;;10.28;70.19922;932.7014;;;;
2022/12/22 10:46:36;;;;;;;1.7;1.1;;;;;;;10.57;68.15527;932.6031;;;;
2022/12/22 10:49:01;;;;;;;1.5;1.4;;;;;;;10.84;68.83984;932.6841;;;;
2022/12/22 10:51:27;;;;;;;1.4;1;;;;;;;11.15;67.61914;932.7636;;;;
2022/12/22 10:53:52;;;;;;;1.2;1.1;;;;;;;11.35;66.23145;932.6671;;;;
2022/12/22 10:56:17;;;;;;;1.1;1;;;;;;;11.49;65.625;932.6007;;;;
2022/12/22 10:58:43;;;;;;;0.7;0.5;;;;;;;11.59;61.24414;932.4417;;;;
2022/12/22 11:01:09;;;;;;;1.2;0.9;;;;;;;11.58;63.2002;932.3947;;;;
2022/12/22 11:03:38;;;;;;;1.1;1;;;;;;;11.69;63.47852;932.2478;;;;
2022/12/22 11:06:03;;;;;;;1.7;1.3;;;;;;;11.21;65.29785;932.3797;;;;
2022/12/22 11:08:30;;;;;;;2.5;1;;;;;;;11.26;64.10254;932.0991;;;;
2022/12/22 11:10:55;;;;;;;1.5;1;;;;;;;10.96;65.94434;932.1877;;;;
2022/12/22 11:13:21;;;;;;;3.2;1.6;;;;;;;10.86;65.97461;932.168;;;;
2022/12/22 11:15:47;;;;;;;1.4;1.3;;;;;;;10.88;66.8125;932.2858;;;;
2022/12/22 11:18:12;;;;;;;1.6;1.2;;;;;;;11;65.77832;932.2028;;;;
2022/12/22 11:20:42;;;;;;;2.6;1.3;;;;;;;11.09;65.08398;932.0451;;;;
2022/12/22 11:23:07;;;;;;;1.9;1.6;;;;;;;11.17;66.58105;932.04;;;;
2022/12/22 11:25:33;;;;;;;1.4;1;;;;;;;11.23;65.08203;932.0784;;;;
2022/12/22 11:28:01;;;;;;;1.8;1.4;;;;;;;11.3;65.30957;932.2583;;;;
2022/12/22 11:30:26;;;;;;;2;1.8;;;;;;;11.22;66.37305;932.3694;;;;
2022/12/22 11:32:51;;;;;;;2;1.7;;;;;;;11.17;65.9873;932.4807;;;;
2022/12/22 11:35:22;;;;;;;3.1;1.8;;;;;;;10.96;66.19531;932.6926;;;;
2022/12/22 11:37:47;;;;;;;1.7;1.2;;;;;;;10.77;66.38379;932.8686;;;;
2022/12/22 11:40:15;;;;;;;1.3;1.2;;;;;;;10.65;65.87402;932.1631;;;;
2022/12/22 11:42:40;;;;;;;1.4;0.9;;;;;;;10.57;66.21582;932.1501;;;;
2022/12/22 11:45:08;;;;;;;1.8;1.4;;;;;;;10.49;68.05273;932.4639;;;;
2022/12/22 11:47:33;;;;;;;4.7;2.9;;;;;;;10.15;67.89746;932.5859;;;;
2022/12/22 11:49:58;;;;;;;2.8;2.1;;;;;;;10.29;70.14551;932.6353;;;;
2022/12/22 11:52:25;;;;;;;2.4;1.6;;;;;;;10.22;69.99707;932.78;;;;
2022/12/22 11:54:52;;;;;;;1.8;1.2;;;;;;;10.39;68.10547;932.6935;;;;
2022/12/22 11:57:21;;;;;;;2;1.4;;;;;;;10.43;69.26563;933.0552;;;;
2022/12/22 11:59:46;;;;;;;1.6;1.3;;;;;;;10.45;68.50391;932.8323;;;;
2022/12/22 12:02:13;;;;;;;1.1;0.6;;;;;;;10.82;60.2793;932.5089;;;;
2022/12/22 12:04:38;;;;;;;0.4;0.4;;;;;;;11.28;56.91211;932.5397;;;;
2022/12/22 12:07:03;;;;;;;1.1;1;;;;;;;11.39;58.20801;932.5602;;;;
2022/12/22 12:09:28;;;;;;;1.4;0.9;;;;;;;11.53;55.47949;932.4986;;;;
2022/12/22 12:11:53;;;;;;;3;1.2;;;;;;;11.71;57.20898;932.6663;;;;
2022/12/22 12:14:19;;;;;;;2;1.4;;;;;;;11.82;56.10059;932.5284;;;;
2022/12/22 12:16:45;;;;;;;3.1;1.6;;;;;;;11.94;56.35742;932.4713;;;;
2022/12/22 12:19:14;;;;;;;1.5;0.8;;;;;;;12.18;53.70703;932.4973;;;;
2022/12/22 12:21:42;;;;;;;1.5;0.7;;;;;;;12.28;51.08301;932.3669;;;;
2022/12/22 12:24:07;;;;;;;1.2;0.4;;;;;;;12.43;52.60156;932.4364;;;;
2022/12/22 12:26:33;;;;;;;1.4;0.5;;;;;;;12.5;51.63574;932.4047;;;;
2022/12/22 12:28:58;;;;;;;1.2;0.6;;;;;;;12.55;50.90723;932.4355;;;;
2022/12/22 12:31:28;;;;;;;2.1;0.7;;;;;;;12.66;49.39355;932.2776;;;;
2022/12/22 12:33:53;;;;;;;0.6;0.4;;;;;;;12.67;50.08398;932.3389;;;;
2022/12/22 12:36:18;;;;;;;2;0.9;;;;;;;12.59;51.2666;932.2899;;;;
2022/12/22 12:38:43;;;;;;;0.7;0.5;;;;;;;12.73;49.86035;932.2034;;;;
2022/12/22 12:41:13;;;;;;;1.1;0.7;;;;;;;12.59;50.34863;932.4832;;;;
2022/12/22 12:43:41;;;;;;;2.8;0.9;;;;;;;12.74;50.0918;932.2897;;;;
2022/12/22 12:46:06;;;;;;;3.3;0.5;;;;;;;12.61;50.99316;932.427;;;;
2022/12/22 12:48:31;;;;;;;1;0.5;;;;;;;12.62;50.88086;932.4336;;;;
2022/12/22 12:50:56;;;;;;;2.4;1;;;;;;;12.71;50.4209;932.4648;;;;
2022/12/22 12:53:21;;;;;;;1.9;0.5;;;;;;;12.85;49.08301;932.4727;;;;
2022/12/22 12:55:46;;;;;;;0.8;0.3;;;;;;;12.86;50.18555;932.4614;;;;
2022/12/22 12:58:12;;;;;;;0.7;0.3;;;;;;;12.99;48.19141;932.5027;;;;
2022/12/22 13:00:37;;;;;;;0.5;0.3;;;;;;;13.32;48.19336;932.6178;;;;
2022/12/22 13:03:03;;;;;;;1.8;0.5;;;;;;;13.14;46.6123;932.6702;;;;
2022/12/22 13:05:29;;;;;;;0.6;0.5;;;;;;;12.91;47.3916;932.6287;;;;
2022/12/22 13:07:53;;;;;;;0.6;0.6;;;;;;;13.11;47.6416;932.7975;;;;
2022/12/22 13:10:21;;;;;;;1;0.5;;;;;;;12.98;50.40625;932.6912;;;;
2022/12/22 13:12:46;;;;;;;0.4;0.4;;;;;;;12.99;50.30273;932.6394;;;;
2022/12/22 13:15:11;;;;;;;0.5;0.4;;;;;;;12.98;49.44238;932.6609;;;;
2022/12/22 13:17:37;;;;;;;2.6;0.7;;;;;;;12.94;47.8418;932.5925;;;;
2022/12/22 13:20:07;;;;;;;0.6;0.6;;;;;;;13.01;47.75684;932.4161;;;;
2022/12/22 13:22:35;;;;;;;1;0.6;;;;;;;13.1;49.17969;932.3333;;;;
2022/12/22 13:25:00;;;;;;;1.8;0.5;;;;;;;13.13;47.12793;932.4904;;;;
2022/12/22 13:27:25;;;;;;;3.4;0.6;;;;;;;13.01;48.05566;932.5912;;;;
2022/12/22 13:29:50;;;;;;;2.1;0.6;;;;;;;13.06;49.73828;932.6813;;;;
2022/12/22 13:32:16;;;;;;;2.1;0.8;;;;;;;12.82;48.15039;932.5544;;;;
2022/12/22 13:34:44;;;;;;;1.3;0.6;;;;;;;12.89;47.98535;932.6545;;;;
2022/12/22 13:37:12;;;;;;;1.2;0.7;;;;;;;12.8;47.4707;932.7021;;;;
2022/12/22 13:39:37;;;;;;;2.5;0.6;;;;;;;12.89;48.16992;932.6401;;;;
2022/12/22 13:42:06;;;;;;;2.7;0.9;;;;;;;12.82;48.72461;932.6688;;;;
2022/12/22 13:44:31;;;;;;;1.8;0.6;;;;;;;12.63;46.85547;932.4462;;;;
2022/12/22 13:46:56;;;;;;;0.9;0.5;;;;;;;12.79;48.10059;932.4881;;;;
2022/12/22 13:49:24;;;;;;;1.3;0.6;;;;;;;12.66;47.16895;932.5507;;;;
2022/12/22 13:51:49;;;;;;;1.4;0.5;;;;;;;12.65;46.63867;932.6418;;;;
2022/12/22 13:54:18;;;;;;;3.9;0.9;;;;;;;12.57;47.74414;932.7699;;;;
2022/12/22 13:56:44;;;;;;;2.1;0.7;;;;;;;12.55;48.24609;932.9553;;;;
2022/12/22 13:59:09;;;;;;;4;0.7;;;;;;;12.56;48.99219;933.1573;;;;
2022/12/22 14:01:34;;;;;;;1.3;0.5;;;;;;;12.25;51.57227;933.4103;;;;
2022/12/22 14:04:02;;;;;;;1.2;0.4;;;;;;;12.04;55.06445;933.5419;;;;
2022/12/22 14:06:25;;;;;;;1.8;0.4;;;;;;;11.8;58.51563;933.3993;;;;
2022/12/22 14:08:53;;;;;;;0.3;0.3;;;;;;;11.61;59.50684;933.4817;;;;
2022/12/22 14:11:21;;;;;;;1.7;0.5;;;;;;;11.62;59.21191;933.563;;;;
2022/12/22 14:13:46;;;;;;;0.8;0.4;;;;;;;11.54;60.46973;933.4417;;;;
2022/12/22 14:16:16;;;;;;;0.9;0.6;;;;;;;11.55;59.95801;933.5469;;;;
2022/12/22 14:18:45;;;;;;;1.4;0.7;;;;;;;11.51;60.00977;933.4984;;;;
2022/12/22 14:21:09;;;;;;;0.8;0.7;;;;;;;11.54;60.76855;933.775;;;;
2022/12/22 14:23:37;;;;;;;0.8;0.5;;;;;;;11.42;59.9502;933.9258;;;;
2022/12/22 14:26:02;;;;;;;1.4;0.7;;;;;;;11.31;61.1709;934.0189;;;;
2022/12/22 14:28:27;;;;;;;0.7;0.7;;;;;;;11.25;61.91699;934.1767;;;;
2022/12/22 14:30:52;;;;;;;0.9;0.9;;;;;;;11.13;62.01563;934.229;;;;
2022/12/22 14:33:20;;;;;;;2.3;0.6;;;;;;;10.92;62.25684;934.1027;;;;
2022/12/22 14:35:49;;;;;;;1.4;0.8;;;;;;;11.13;62.80273;934.0927;;;;
2022/12/22 14:38:16;;;;;;;2.1;1;;;;;;;11.24;63.10547;934.0978;;;;
2022/12/22 14:40:41;;;;;;;1.3;0.8;;;;;;;11.19;62.0332;933.9819;;;;
2022/12/22 14:43:08;;;;;;;3.2;1.1;;;;;;;11.06;63.04492;933.9548;;;;
2022/12/22 14:45:39;;;;;;;3.2;1.2;;;;;;;11.02;62.94727;933.8329;;;;
2022/12/22 14:48:04;;;;;;;2.8;1.1;;;;;;;11.2;62.85742;933.7294;;;;
2022/12/22 14:50:30;;;;;;;2.7;1;;;;;;;11.17;62.00781;933.66;;;;
2022/12/22 14:52:57;;;;;;;2.2;1;;;;;;;11.15;61.45605;933.6298;;;;
2022/12/22 14:55:22;;;;;;;1.5;1;;;;;;;11.21;62.1748;933.6281;;;;
2022/12/22 14:57:47;;;;;;;1.4;1;;;;;;;10.97;63.3623;933.6008;;;;
2022/12/22 15:00:13;;;;;;;2.8;1.5;;;;;;;10.75;64.92969;933.5455;;;;
2022/12/22 15:02:40;;;;;;;3.8;1.6;;;;;;;10.48;65.98535;933.7573;;;;
2022/12/22 15:05:17;;;;;;;3.1;1.5;;;;;;;10.49;66.97949;933.9651;;;;
2022/12/22 15:07:48;;;;;;;2.9;1.6;;;;;;;10.45;67.92188;934.168;;;;
2022/12/22 15:10:17;;;;;;;5.2;3.1;;;;;;;10.41;69.74121;934.0195;;;;
2022/12/22 15:12:44;;;;;;;3.5;1.6;;;;;;;10.06;70.33594;934.0932;;;;
2022/12/22 15:15:10;;;;;;;3.3;1.7;;;;;;;10.01;69.48242;934.5253;;;;
2022/12/22 15:17:41;;;;;;;2.2;1.1;;;;;;;10.14;67.68945;934.504;;;;
2022/12/22 15:20:16;;;;;;;2.1;1.6;;;;;;;10.16;69.64453;934.5089;;;;
2022/12/22 15:22:49;;;;;;;1.2;0.6;;;;;;;10.2;68.7373;934.3006;;;;
2022/12/22 15:25:19;;;;;;;4.1;1.9;;;;;;;10.24;69.77051;934.2043;;;;
2022/12/22 15:27:44;;;;;;;2;1;;;;;;;10.04;69.79492;934.1169;;;;
2022/12/22 15:30:09;;;;;;;4.8;2.5;;;;;;;10;69.64063;934.0043;;;;
2022/12/22 15:32:34;;;;;;;2.4;1.1;;;;;;;9.98;69.59277;934.0289;;;;
2022/12/22 15:35:03;;;;;;;2.1;1.2;;;;;;;10.04;68.66602;934.0636;;;;
2022/12/22 15:37:35;;;;;;;3.7;1.9;;;;;;;10.05;69.18066;934.1353;;;;
2022/12/22 15:40:06;;;;;;;3.7;2;;;;;;;9.89;70.33008;934.2455;;;;
2022/12/22 15:42:46;;;;;;;3.2;2.1;;;;;;;9.93;70.62109;934.447;;;;
2022/12/22 15:45:11;;;;;;;17.1;9.1;;;;;;;9.94;72.28906;934.4685;;;;
2022/12/22 15:47:37;;;;;;;14.1;8.1;;;;;;;9.92;72.61523;934.4612;;;;
2022/12/22 15:50:01;;;;;;;6;3.3;;;;;;;9.74;72.58496;934.5776;;;;
2022/12/22 15:52:26;;;;;;;16.4;8.9;;;;;;;9.59;75.47656;934.5008;;;;
2022/12/22 15:54:56;;;;;;;10.9;6.2;;;;;;;9.27;76.52637;934.549;;;;
2022/12/22 15:57:21;;;;;;;8.9;4.6;;;;;;;9.15;76.16406;934.6342;;;;
2022/12/22 15:59:46;;;;;;;7.8;5.3;;;;;;;8.87;76.39746;934.4972;;;;
2022/12/22 16:02:13;;;;;;;7.7;5.7;;;;;;;8.95;76.66211;934.5075;;;;
2022/12/22 16:04:38;;;;;;;8.5;5.2;;;;;;;9.07;75.5332;934.5208;;;;
2022/12/22 16:07:06;;;;;;;14.5;8;;;;;;;9.08;75.69434;934.5748;;;;
2022/12/22 16:09:38;;;;;;;7.3;4.7;;;;;;;9.07;74.78223;934.4095;;;;
2022/12/22 16:12:06;;;;;;;10.3;6.1;;;;;;;9;75.49902;934.5357;;;;
2022/12/22 16:14:31;;;;;;;9.6;5.8;;;;;;;8.9;75.29883;934.4752;;;;
2022/12/22 16:16:56;;;;;;;14.7;8.3;;;;;;;8.85;75.7793;934.3525;;;;
2022/12/22 16:19:22;;;;;;;15.1;8.6;;;;;;;8.82;75.99121;934.3658;;;;
2022/12/22 16:21:49;;;;;;;12.4;8.6;;;;;;;8.78;76.39258;934.3159;;;;
2022/12/22 16:24:14;;;;;;;10.5;7.5;;;;;;;8.73;76.83789;934.4026;;;;
2022/12/22 16:26:39;;;;;;;13.9;9.1;;;;;;;8.64;77.56055;934.3391;;;;
2022/12/22 16:29:06;;;;;;;11.9;6.6;;;;;;;8.61;77.89648;934.3638;;;;
2022/12/22 16:31:31;;;;;;;11.2;6.4;;;;;;;8.49;78.54395;934.2975;;;;
2022/12/22 16:33:58;;;;;;;12.7;5.9;;;;;;;8.38;79.19629;934.2778;;;;
2022/12/22 16:36:23;;;;;;;14;6.9;;;;;;;8.28;80.00586;934.236;;;;
2022/12/22 16:38:50;;;;;;;9.3;3.6;;;;;;;8.34;79.67676;934.2075;;;;
2022/12/22 16:41:15;;;;;;;7.6;5.6;;;;;;;8.25;80.55664;934.2349;;;;
2022/12/22 16:43:44;;;;;;;16;10.7;;;;;;;8.15;80.87891;934.2714;;;;
2022/12/22 16:46:09;;;;;;;17.8;10.5;;;;;;;8.22;80.39258;934.2456;;;;
2022/12/22 16:48:36;;;;;;;15.9;10.9;;;;;;;8.32;79.65039;934.1864;;;;
2022/12/22 16:51:01;;;;;;;20.4;11;;;;;;;8.23;80.19043;934.2274;;;;
2022/12/22 16:53:27;;;;;;;12.3;8.2;;;;;;;8.22;79.61914;934.2463;;;;
2022/12/22 16:55:53;;;;;;;21.4;12.1;;;;;;;8.28;79.01855;934.2249;;;;
2022/12/22 16:58:18;;;;;;;9.3;6.1;;;;;;;8.29;78.71387;934.1298;;;;
2022/12/22 17:00:45;;;;;;;10.6;7;;;;;;;8.26;78.33203;934.0683;;;;
2022/12/22 17:03:10;;;;;;;11.1;7.1;;;;;;;8.21;78.33594;934.1107;;;;
2022/12/22 17:05:38;;;;;;;10.5;6.7;;;;;;;8.24;78.14746;934.1911;;;;
2022/12/22 17:08:03;;;;;;;6.1;4.1;;;;;;;8.17;78.2832;934.1559;;;;
2022/12/22 17:10:28;;;;;;;3.2;2.2;;;;;;;8.14;77.50488;934.2633;;;;
2022/12/22 17:12:58;;;;;;;3.9;2.3;;;;;;;8.2;77.20996;934.2213;;;;
2022/12/22 17:15:23;;;;;;;3.2;1.9;;;;;;;8.36;75.47656;934.1942;;;;
2022/12/22 17:17:52;;;;;;;2.7;1.7;;;;;;;8.52;75.27734;934.1534;;;;
2022/12/22 17:20:17;;;;;;;3.7;2;;;;;;;8.58;75.46875;934.127;;;;
2022/12/22 17:22:42;;;;;;;3.2;1.8;;;;;;;8.65;74.61816;934.0574;;;;
2022/12/22 17:25:07;;;;;;;3.8;2.3;;;;;;;8.63;74.71875;933.9739;;;;
2022/12/22 17:27:32;;;;;;;4.1;2.1;;;;;;;8.6;74.43945;933.9201;;;;
2022/12/22 17:29:57;;;;;;;4;2.7;;;;;;;8.52;74.50488;933.9567;;;;
2022/12/22 17:32:22;;;;;;;6.9;5.3;;;;;;;8.5;75.78418;934.0762;;;;
2022/12/22 17:34:51;;;;;;;5.2;3.3;;;;;;;8.47;76.29297;934.0697;;;;
2022/12/22 17:37:16;;;;;;;5.4;3.4;;;;;;;8.52;76.58496;933.9503;;;;
2022/12/22 17:39:46;;;;;;;7.7;3.6;;;;;;;8.38;76.84473;933.9447;;;;
2022/12/22 17:42:11;;;;;;;12.2;8.3;;;;;;;8.38;76.82227;933.9867;;;;
2022/12/22 17:44:40;;;;;;;16.8;11.2;;;;;;;8.3;77.62305;933.9545;;;;
2022/12/22 17:47:09;;;;;;;23.3;15.4;;;;;;;8.31;77.8291;933.9785;;;;
2022/12/22 17:49:34;;;;;;;26.7;15.7;;;;;;;8.29;78.34863;934.0067;;;;
2022/12/22 17:52:00;;;;;;;37.3;21;;;;;;;8.19;78.3418;933.9047;;;;
2022/12/22 17:54:25;;;;;;;35.6;20.8;;;;;;;7.93;79.51074;934.0711;;;;
2022/12/22 17:56:54;;;;;;;35.7;19.1;;;;;;;7.93;79.47656;933.9585;;;;
2022/12/22 17:59:19;;;;;;;36;19.8;;;;;;;7.96;79.36816;934.0111;;;;
2022/12/22 18:01:47;;;;;;;33.7;18.4;;;;;;;7.84;79.76465;933.9272;;;;
2022/12/22 18:04:12;;;;;;;32.1;18.3;;;;;;;7.69;80.45215;933.8831;;;;
2022/12/22 18:06:37;;;;;;;28.2;17.5;;;;;;;7.61;80.98145;933.8995;;;;